Loran, Illinois
Current Conditions -  °F | °C
As of 10:15 AM on Thursday 18 Dec 2014 (Local Time) from KFEP Reporting Station
Scattered Clouds Scattered Clouds  
Wind Chill: 20°   Ceiling: Unl
Heat Index: 20°   Visibility: 10mi
Dew Point: 15°   Wind: 0mph
Humidity: 83%   Direction: NA
Pressure: 30.33"   Gusts: NA
Location:  42.2523°N, 89.8438°W
Report Text: KFEP 181615Z AUTO 00000KT 10SM SCT023 M07/M09 A3033 RMK AO2 T10681093
Loading
Personal Weather Stations






























Interactive Weather Map New forecast layout! Learn more

10-Day Weather Forecast

Advertisements
Track Severe Weather on mobile